Bookmark and Share
Track history (hours):
 

Clara

Last reported at 2014-Apr-21 03:33 UTC. Time now 2014-Apr-23 13:02 UTC.
Position N 50°16' W 001°23'.

Length 108 m; draft 6.9 m.

Type: Cargo ship. MMSI: 304983000.

NotesDate/timePositionNaut miles runAvg speedWind from/ knotsBaromVisibWave heightAir tempDewpointWater temp
2014-Apr-21 03:33N 50°16' W 001°23'1111.1
2014-Apr-21 02:33N 50°19' W 001°06'9 9.3
2014-Apr-21 01:34N 50°22' W 000°52'8 7.8
2014-Apr-21 00:28N 50°25' W 000°39'7 7.7
2014-Apr-20 23:33N 50°26' W 000°29'30 9.9
2014-Apr-20 20:30N 50°35' E 000°17'1112.0
2014-Apr-20 19:33N 50°38' E 000°34'1211.6
2014-Apr-20 18:34N 50°45' E 000°49'1110.6
2014-Apr-20 17:30N 50°51' E 001°03'20 8.7
2014-Apr-20 15:12N 51°04' E 001°28'6 8.7
2014-Apr-20 14:30N 51°08' E 001°35'9 9.6
2014-Apr-20 13:34N 51°14' E 001°46'1211.2
2014-Apr-20 12:32N 51°23' E 001°58'9 9.4
2014-Apr-20 11:33N 51°21' E 002°13'1111.5
2014-Apr-20 10:33N 51°23' E 002°31'1110.8
2014-Apr-20 09:33N 51°22' E 002°48'1211.8
2014-Apr-20 08:33N 51°24' E 003°07'1312.9
2014-Apr-20 07:34N 51°25' E 003°27'1110.8
2014-Apr-20 06:34N 51°22' E 003°44'9 8.8
2014-Apr-20 05:33N 51°25' E 003°58'6 5.9
2014-Apr-20 04:33N 51°22' E 004°06'6 5.8
2014-Apr-20 03:33N 51°21' E 004°15'1 1.5
2014-Apr-20 02:34N 51°21' E 004°17'1 0.7
2014-Apr-20 01:12N 51°22' E 004°17'0 0.0
2014-Apr-20 00:30N 51°22' E 004°17'0 0.0
2014-Apr-19 23:33N 51°22' E 004°17'0 0.0
2014-Apr-19 22:33N 51°22' E 004°17'0 0.0
2014-Apr-19 21:27N 51°22' E 004°17'0 0.0
2014-Apr-19 20:33N 51°22' E 004°17'0 0.0
2014-Apr-19 18:33N 51°22' E 004°17'0 0.0
2014-Apr-19 17:33N 51°22' E 004°17'0 0.0
2014-Apr-19 16:27N 51°22' E 004°17'0 0.0
2014-Apr-19 15:30N 51°22' E 004°17'0 0.0
2014-Apr-19 14:33N 51°22' E 004°17'0 0.0
2014-Apr-19 13:33N 51°22' E 004°17'0 0.0
2014-Apr-19 12:33N 51°22' E 004°17'0 0.0
2014-Apr-19 11:33N 51°22' E 004°17'0 0.0
2014-Apr-19 10:33N 51°22' E 004°17'0 0.0
2014-Apr-19 09:27N 51°22' E 004°17'0 0.0
2014-Apr-19 08:33N 51°22' E 004°17'0 0.0
2014-Apr-19 07:30N 51°22' E 004°17'0 0.0
2014-Apr-19 06:33N 51°22' E 004°17'0 0.0
2014-Apr-19 05:18N 51°22' E 004°17'0 0.0
2014-Apr-19 04:33N 51°22' E 004°17'0 0.0
2014-Apr-19 03:33N 51°22' E 004°17'0 0.0
2014-Apr-19 02:33N 51°22' E 004°17'0 0.0
2014-Apr-19 01:33N 51°22' E 004°17'0 0.0
2014-Apr-19 00:30N 51°22' E 004°17'0 0.0
2014-Apr-18 23:33N 51°22' E 004°17'1 0.9
2014-Apr-18 22:34N 51°21' E 004°17'1 1.2
2014-Apr-18 21:34N 51°21' E 004°15'6 6.3
2014-Apr-18 20:33N 51°22' E 004°05'5 5.2
2014-Apr-18 19:33N 51°24' E 003°58'7 6.9
2014-Apr-18 18:33N 51°21' E 003°48'9 8.5
2014-Apr-18 17:33N 51°25' E 003°36'9 8.8
2014-Apr-18 16:33N 51°31' E 003°26'1110.5
2014-Apr-18 15:33N 51°41' E 003°18'28 8.1
2014-Apr-18 12:05N 52°03' E 003°46'5 9.2
2014-Apr-18 11:33N 52°01' E 003°54'9 9.3
2014-Apr-18 10:33N 51°58' E 004°08'1 0.7
2014-Apr-18 09:32N 51°57' E 004°09'0 0.0
2014-Apr-18 08:29N 51°57' E 004°09'0 0.0
2014-Apr-18 07:33N 51°57' E 004°09'0 0.0
2014-Apr-18 06:32N 51°57' E 004°09'0 0.0
2014-Apr-18 05:33N 51°57' E 004°09'0 0.0
2014-Apr-18 04:33N 51°57' E 004°09'0 0.0
2014-Apr-18 03:32N 51°57' E 004°09'0 0.0
2014-Apr-18 02:33N 51°57' E 004°09'0 0.0
2014-Apr-18 01:27N 51°57' E 004°09'0 0.0
2014-Apr-18 00:30N 51°57' E 004°09'0 0.0
2014-Apr-17 23:33N 51°57' E 004°09'0 0.0
2014-Apr-17 22:33N 51°57' E 004°09'0 0.0
2014-Apr-17 21:30N 51°57' E 004°09'0 0.0
2014-Apr-17 20:33N 51°57' E 004°09'0 0.0
2014-Apr-17 19:32N 51°57' E 004°09'0 0.0
2014-Apr-17 18:30N 51°57' E 004°09'0 0.0
2014-Apr-17 17:32N 51°57' E 004°09'0 0.0
2014-Apr-17 16:33N 51°57' E 004°09'0 0.0
2014-Apr-17 15:32N 51°57' E 004°09'0 0.0
2014-Apr-17 14:32N 51°57' E 004°09'0 0.0
2014-Apr-17 12:27N 51°57' E 004°09'0 0.0
2014-Apr-17 11:32N 51°57' E 004°09'0 0.0
2014-Apr-17 10:33N 51°57' E 004°09'0 0.0
2014-Apr-17 09:33N 51°57' E 004°09'0 0.0
2014-Apr-17 08:23N 51°57' E 004°09'0 0.0
2014-Apr-17 06:17N 51°57' E 004°09'0 0.0
2014-Apr-17 05:12N 51°57' E 004°09'0 0.0
2014-Apr-17 04:32N 51°57' E 004°09'0 0.0
2014-Apr-17 03:30N 51°57' E 004°09'0 0.0
2014-Apr-17 02:33N 51°57' E 004°09'0 0.0
2014-Apr-17 01:33N 51°57' E 004°09'0 0.0
2014-Apr-17 00:32N 51°57' E 004°09'0 0.0
2014-Apr-16 23:33N 51°57' E 004°09'0 0.0
2014-Apr-16 22:33N 51°57' E 004°09'0 0.0
2014-Apr-16 21:32N 51°57' E 004°09'0 0.0
2014-Apr-16 20:32N 51°57' E 004°09'0 0.0
2014-Apr-16 18:27N 51°57' E 004°09'0 0.0
2014-Apr-16 17:27N 51°57' E 004°09'0 0.0
2014-Apr-16 16:30N 51°57' E 004°09'0 0.0
2014-Apr-16 15:27N 51°57' E 004°09'0 0.0
2014-Apr-16 14:32N 51°57' E 004°09'0 0.0
2014-Apr-16 13:27N 51°57' E 004°09'0 0.0
2014-Apr-16 12:12N 51°57' E 004°09'0 0.0
2014-Apr-16 10:11N 51°57' E 004°09'0 0.0
2014-Apr-16 08:32N 51°57' E 004°09'0 0.0
2014-Apr-16 07:17N 51°57' E 004°09'0 0.0
2014-Apr-16 06:32N 51°57' E 004°09'0 0.0
2014-Apr-16 05:23N 51°57' E 004°09'0 0.0
2014-Apr-16 04:30N 51°57' E 004°09'0 0.0
2014-Apr-16 03:30N 51°57' E 004°09'0 0.0
2014-Apr-16 02:32N 51°57' E 004°09'0 0.0
2014-Apr-16 01:32N 51°57' E 004°09'0 0.0
2014-Apr-16 00:32N 51°57' E 004°09'0 0.0
2014-Apr-15 23:29N 51°57' E 004°09'0 0.0
2014-Apr-15 22:30N 51°57' E 004°09'0 0.0
2014-Apr-15 21:33N 51°57' E 004°09'0 0.0
2014-Apr-15 20:33N 51°57' E 004°09'0 0.0
2014-Apr-15 19:32N 51°57' E 004°09'0 0.0
2014-Apr-15 18:28N 51°57' E 004°09'1 0.8
2014-Apr-15 17:33N 51°58' E 004°08'5 5.2
2014-Apr-15 16:33N 51°55' E 004°15'1 0.2
2014-Apr-15 09:32N 51°53' E 004°16'0 0.0
2014-Apr-15 08:32N 51°53' E 004°16'0 0.0
2014-Apr-15 07:32N 51°53' E 004°16'0 0.0
2014-Apr-15 01:32N 51°53' E 004°16'158157.8
2014-Apr-15 00:32N 51°53' E 000°00'15879.1
2014-Apr-14 22:32N 51°53' E 004°16'0 0.0
2014-Apr-14 19:31N 51°53' E 004°16'0 0.0
2014-Apr-14 16:31N 51°53' E 004°16'0 0.0
2014-Apr-14 13:31N 51°53' E 004°16'0 0.0
2014-Apr-13 22:13N 51°53' E 004°16'0 0.0
2014-Apr-13 21:19N 51°53' E 004°16'0 0.0
2014-Apr-13 20:19N 51°54' E 004°16'0 0.0
2014-Apr-13 19:31N 51°53' E 004°16'0 0.0
2014-Apr-13 18:22N 51°53' E 004°16'0 0.0
2014-Apr-13 17:07N 51°53' E 004°16'0 0.0
2014-Apr-13 15:19N 51°53' E 004°16'0 0.0
2014-Apr-13 14:19N 51°53' E 004°16'0 0.0
2014-Apr-13 13:25N 51°53' E 004°16'0 0.0
2014-Apr-13 12:31N 51°53' E 004°16'0 0.0
2014-Apr-13 11:25N 51°53' E 004°16'0 0.0
2014-Apr-13 09:19N 51°53' E 004°16'0 0.0
2014-Apr-13 07:19N 51°53' E 004°16'0 0.0
2014-Apr-13 06:13N 51°53' E 004°16'0 0.0
2014-Apr-13 04:22N 51°53' E 004°16'0 0.0
2014-Apr-13 03:31N 51°53' E 004°16'0 0.0
2014-Apr-13 02:13N 51°53' E 004°16'0 0.0
2014-Apr-13 01:31N 51°53' E 004°16'0 0.0
2014-Apr-13 00:31N 51°53' E 004°16'0 0.0
2014-Apr-12 23:25N 51°53' E 004°16'0 0.0
2014-Apr-12 22:13N 51°53' E 004°16'0 0.0
2014-Apr-12 21:25N 51°53' E 004°16'0 0.2
2014-Apr-12 19:33N 51°53' E 004°17'4 4.0
2014-Apr-12 18:33N 51°56' E 004°12'7 7.4
2014-Apr-12 17:33N 51°59' E 004°02'9 8.6
2014-Apr-12 16:33N 51°60' E 003°48'10 9.8
2014-Apr-12 15:31N 51°56' E 003°32'4511.1
2014-Apr-12 11:30N 51°37' E 002°27'1312.1
2014-Apr-12 10:23N 51°27' E 002°13'1011.9
2014-Apr-12 09:31N 51°17' E 002°07'1111.3
2014-Apr-12 08:33N 51°10' E 001°54'1511.0
2014-Apr-12 07:13N 50°60' E 001°37'7 9.9
2014-Apr-12 06:32N 50°54' E 001°30'9 9.1
2014-Apr-12 05:33N 50°46' E 001°25'10 8.9
2014-Apr-12 04:25N 50°38' E 001°15'8 9.5
2014-Apr-12 03:32N 50°33' E 001°05'9 9.4
2014-Apr-12 02:32N 50°28' E 000°52'9 9.5
2014-Apr-12 01:33N 50°25' E 000°38'10 9.4
2014-Apr-12 00:32N 50°23' E 000°24'9 9.4
2014-Apr-11 23:33N 50°20' E 000°10'5611.0
2014-Apr-11 18:27N 50°05' W 001°15'  

Dump ship's entire track history

sailing weather and tide predictions

Clara — V2CC9 — position and weather